sensor_id;sensor_type;location;lat;lon;timestamp;pressure;altitude;pressure_sealevel;temperature;humidity
55171;BME280;41060;47.510;8.680;2024-03-25T00:01:06;96573.75;;;6.76;54.11
55171;BME280;41060;47.510;8.680;2024-03-25T00:03:33;96580.94;;;6.98;53.58
55171;BME280;41060;47.510;8.680;2024-03-25T00:06:00;96576.25;;;6.91;53.78
55171;BME280;41060;47.510;8.680;2024-03-25T00:08:27;96574.69;;;6.99;53.35
55171;BME280;41060;47.510;8.680;2024-03-25T00:10:53;96576.44;;;6.88;53.49
55171;BME280;41060;47.510;8.680;2024-03-25T00:13:20;96573.44;;;6.81;53.35
55171;BME280;41060;47.510;8.680;2024-03-25T00:15:46;96575.16;;;6.93;53.43
55171;BME280;41060;47.510;8.680;2024-03-25T00:18:13;96565.63;;;6.79;53.72
55171;BME280;41060;47.510;8.680;2024-03-25T00:20:39;96571.34;;;6.97;53.08
55171;BME280;41060;47.510;8.680;2024-03-25T00:23:07;96569.00;;;7.05;52.70
55171;BME280;41060;47.510;8.680;2024-03-25T00:25:34;96525.16;;;6.69;53.34
55171;BME280;41060;47.510;8.680;2024-03-25T00:28:00;96560.53;;;7.13;52.55
55171;BME280;41060;47.510;8.680;2024-03-25T00:30:29;96556.19;;;6.53;54.57
55171;BME280;41060;47.510;8.680;2024-03-25T00:32:56;96551.34;;;6.47;54.96
55171;BME280;41060;47.510;8.680;2024-03-25T00:35:22;96554.34;;;6.66;54.36
55171;BME280;41060;47.510;8.680;2024-03-25T00:37:48;96557.06;;;6.65;54.21
55171;BME280;41060;47.510;8.680;2024-03-25T00:40:16;96549.25;;;6.39;55.11
55171;BME280;41060;47.510;8.680;2024-03-25T00:42:45;96540.38;;;6.77;53.79
55171;BME280;41060;47.510;8.680;2024-03-25T00:45:11;96548.84;;;6.93;53.45
55171;BME280;41060;47.510;8.680;2024-03-25T00:47:39;96549.34;;;6.98;53.33
55171;BME280;41060;47.510;8.680;2024-03-25T00:50:05;96540.88;;;7.06;53.18
55171;BME280;41060;47.510;8.680;2024-03-25T00:52:35;96532.78;;;7.20;52.63
55171;BME280;41060;47.510;8.680;2024-03-25T00:55:03;96514.31;;;7.09;51.88
55171;BME280;41060;47.510;8.680;2024-03-25T00:57:31;96531.38;;;7.27;51.95
55171;BME280;41060;47.510;8.680;2024-03-25T01:00:00;96538.06;;;7.31;52.24
55171;BME280;41060;47.510;8.680;2024-03-25T01:02:28;96542.06;;;7.02;53.24
55171;BME280;41060;47.510;8.680;2024-03-25T01:04:53;96542.53;;;7.07;53.07
55171;BME280;41060;47.510;8.680;2024-03-25T01:07:21;96548.19;;;7.13;52.42
55171;BME280;41060;47.510;8.680;2024-03-25T01:09:48;96525.78;;;7.08;52.17
55171;BME280;41060;47.510;8.680;2024-03-25T01:12:14;96529.44;;;7.18;51.96
55171;BME280;41060;47.510;8.680;2024-03-25T01:14:42;96518.47;;;7.35;51.84
55171;BME280;41060;47.510;8.680;2024-03-25T01:17:09;96525.06;;;7.41;51.52
55171;BME280;41060;47.510;8.680;2024-03-25T01:19:35;96525.78;;;7.43;51.57
55171;BME280;41060;47.510;8.680;2024-03-25T01:22:01;96515.47;;;7.40;51.38
55171;BME280;41060;47.510;8.680;2024-03-25T01:24:28;96522.91;;;7.35;51.58
55171;BME280;41060;47.510;8.680;2024-03-25T01:26:55;96514.38;;;7.31;51.23
55171;BME280;41060;47.510;8.680;2024-03-25T01:29:21;96514.16;;;7.34;51.41
55171;BME280;41060;47.510;8.680;2024-03-25T01:31:50;96497.84;;;7.29;51.30
55171;BME280;41060;47.510;8.680;2024-03-25T01:34:15;96504.47;;;7.35;51.24
55171;BME280;41060;47.510;8.680;2024-03-25T01:36:42;96508.41;;;7.40;51.11
55171;BME280;41060;47.510;8.680;2024-03-25T01:39:08;96506.63;;;7.41;50.78
55171;BME280;41060;47.510;8.680;2024-03-25T01:41:35;96502.94;;;6.97;51.96
55171;BME280;41060;47.510;8.680;2024-03-25T01:44:01;96502.50;;;6.79;52.59
55171;BME280;41060;47.510;8.680;2024-03-25T01:46:28;96497.19;;;6.68;52.90
55171;BME280;41060;47.510;8.680;2024-03-25T01:48:56;96499.53;;;6.60;52.95
55171;BME280;41060;47.510;8.680;2024-03-25T01:51:24;96497.69;;;6.50;53.41
55171;BME280;41060;47.510;8.680;2024-03-25T01:53:52;96502.75;;;6.53;53.40
55171;BME280;41060;47.510;8.680;2024-03-25T01:56:21;96503.91;;;6.49;53.35
55171;BME280;41060;47.510;8.680;2024-03-25T01:58:48;96498.50;;;6.39;53.70
55171;BME280;41060;47.510;8.680;2024-03-25T02:01:16;96501.44;;;6.34;53.52
55171;BME280;41060;47.510;8.680;2024-03-25T02:03:43;96505.09;;;6.32;53.78
55171;BME280;41060;47.510;8.680;2024-03-25T02:06:13;96499.69;;;6.22;53.74
55171;BME280;41060;47.510;8.680;2024-03-25T02:08:40;96499.94;;;6.43;53.35
55171;BME280;41060;47.510;8.680;2024-03-25T02:11:07;96496.63;;;6.28;53.92
55171;BME280;41060;47.510;8.680;2024-03-25T02:13:35;96499.44;;;6.01;54.39
55171;BME280;41060;47.510;8.680;2024-03-25T02:16:02;96494.94;;;5.78;55.28
55171;BME280;41060;47.510;8.680;2024-03-25T02:18:28;96500.41;;;5.88;54.98
55171;BME280;41060;47.510;8.680;2024-03-25T02:20:56;96498.47;;;6.15;54.42
55171;BME280;41060;47.510;8.680;2024-03-25T02:23:24;96498.34;;;6.17;53.86
55171;BME280;41060;47.510;8.680;2024-03-25T02:25:52;96484.38;;;6.16;53.76
55171;BME280;41060;47.510;8.680;2024-03-25T02:28:21;96485.63;;;6.11;53.73
55171;BME280;41060;47.510;8.680;2024-03-25T02:30:48;96489.34;;;6.08;53.94
55171;BME280;41060;47.510;8.680;2024-03-25T02:33:14;96487.06;;;6.27;53.39
55171;BME280;41060;47.510;8.680;2024-03-25T02:35:42;96476.47;;;6.40;52.93
55171;BME280;41060;47.510;8.680;2024-03-25T02:38:10;96473.19;;;6.49;52.90
55171;BME280;41060;47.510;8.680;2024-03-25T02:40:37;96469.97;;;6.33;53.48
55171;BME280;41060;47.510;8.680;2024-03-25T02:43:04;96466.13;;;6.02;54.40
55171;BME280;41060;47.510;8.680;2024-03-25T02:45:33;96466.69;;;6.18;54.07
55171;BME280;41060;47.510;8.680;2024-03-25T02:47:59;96462.16;;;5.84;55.08
55171;BME280;41060;47.510;8.680;2024-03-25T02:50:25;96457.41;;;5.76;55.31
55171;BME280;41060;47.510;8.680;2024-03-25T02:52:52;96463.47;;;5.40;56.45
55171;BME280;41060;47.510;8.680;2024-03-25T02:55:19;96458.81;;;5.69;55.78
55171;BME280;41060;47.510;8.680;2024-03-25T02:57:44;96455.97;;;5.85;55.43
55171;BME280;41060;47.510;8.680;2024-03-25T03:00:14;96453.53;;;5.94;54.71
55171;BME280;41060;47.510;8.680;2024-03-25T03:02:42;96454.47;;;5.93;55.28
55171;BME280;41060;47.510;8.680;2024-03-25T03:05:09;96455.38;;;6.05;54.46
55171;BME280;41060;47.510;8.680;2024-03-25T03:07:35;96459.53;;;5.84;55.11
55171;BME280;41060;47.510;8.680;2024-03-25T03:10:02;96454.28;;;5.84;55.36
55171;BME280;41060;47.510;8.680;2024-03-25T03:12:27;96457.25;;;6.03;54.84
55171;BME280;41060;47.510;8.680;2024-03-25T03:14:55;96454.34;;;5.95;54.95
55171;BME280;41060;47.510;8.680;2024-03-25T03:17:22;96456.56;;;5.88;55.23
55171;BME280;41060;47.510;8.680;2024-03-25T03:19:48;96453.94;;;5.88;55.26
55171;BME280;41060;47.510;8.680;2024-03-25T03:22:14;96444.38;;;6.24;53.88
55171;BME280;41060;47.510;8.680;2024-03-25T03:24:41;96446.50;;;6.42;53.72
55171;BME280;41060;47.510;8.680;2024-03-25T03:27:07;96443.88;;;6.42;53.32
55171;BME280;41060;47.510;8.680;2024-03-25T03:29:34;96446.00;;;6.37;53.77
55171;BME280;41060;47.510;8.680;2024-03-25T03:32:00;96443.88;;;6.42;53.63
55171;BME280;41060;47.510;8.680;2024-03-25T03:34:28;96443.59;;;6.69;52.51
55171;BME280;41060;47.510;8.680;2024-03-25T03:36:54;96442.81;;;6.80;52.34
55171;BME280;41060;47.510;8.680;2024-03-25T03:39:21;96444.13;;;6.74;52.62
55171;BME280;41060;47.510;8.680;2024-03-25T03:41:46;96440.41;;;6.77;52.55
55171;BME280;41060;47.510;8.680;2024-03-25T03:44:16;96451.44;;;6.82;52.23
55171;BME280;41060;47.510;8.680;2024-03-25T03:46:41;96439.25;;;6.92;51.85
55171;BME280;41060;47.510;8.680;2024-03-25T03:49:08;96440.09;;;6.93;52.06
55171;BME280;41060;47.510;8.680;2024-03-25T03:51:35;96438.22;;;7.06;51.96
55171;BME280;41060;47.510;8.680;2024-03-25T03:54:02;96438.69;;;7.11;51.70
55171;BME280;41060;47.510;8.680;2024-03-25T03:56:28;96430.81;;;7.11;51.36
55171;BME280;41060;47.510;8.680;2024-03-25T03:58:55;96438.34;;;7.15;51.67
55171;BME280;41060;47.510;8.680;2024-03-25T04:01:20;96434.03;;;7.14;51.73
55171;BME280;41060;47.510;8.680;2024-03-25T04:03:47;96439.75;;;6.97;51.99
55171;BME280;41060;47.510;8.680;2024-03-25T04:06:14;96423.38;;;7.05;52.47
55171;BME280;41060;47.510;8.680;2024-03-25T04:08:44;96421.34;;;7.08;52.00
55171;BME280;41060;47.510;8.680;2024-03-25T04:11:10;96426.75;;;7.18;52.24
55171;BME280;41060;47.510;8.680;2024-03-25T04:13:37;96426.16;;;7.26;52.04
55171;BME280;41060;47.510;8.680;2024-03-25T04:16:05;96420.63;;;7.29;52.29
55171;BME280;41060;47.510;8.680;2024-03-25T04:18:33;96434.41;;;7.32;51.70
55171;BME280;41060;47.510;8.680;2024-03-25T04:20:59;96426.53;;;7.32;52.23
55171;BME280;41060;47.510;8.680;2024-03-25T04:23:26;96425.31;;;7.36;52.00
55171;BME280;41060;47.510;8.680;2024-03-25T04:25:53;96420.19;;;7.35;51.91
55171;BME280;41060;47.510;8.680;2024-03-25T04:28:21;96414.78;;;7.36;51.69
55171;BME280;41060;47.510;8.680;2024-03-25T04:30:51;96417.56;;;7.35;51.51
55171;BME280;41060;47.510;8.680;2024-03-25T04:33:18;96407.72;;;7.37;51.52
55171;BME280;41060;47.510;8.680;2024-03-25T04:35:45;96407.50;;;7.40;51.46
55171;BME280;41060;47.510;8.680;2024-03-25T04:38:12;96404.75;;;7.41;51.57
55171;BME280;41060;47.510;8.680;2024-03-25T04:40:38;96405.69;;;7.40;51.77
55171;BME280;41060;47.510;8.680;2024-03-25T04:43:05;96403.63;;;7.21;53.27
55171;BME280;41060;47.510;8.680;2024-03-25T04:45:33;96412.59;;;7.08;53.35
55171;BME280;41060;47.510;8.680;2024-03-25T04:47:59;96398.56;;;6.74;54.07
55171;BME280;41060;47.510;8.680;2024-03-25T04:50:26;96414.59;;;6.82;53.71
55171;BME280;41060;47.510;8.680;2024-03-25T04:52:52;96402.25;;;6.71;53.93
55171;BME280;41060;47.510;8.680;2024-03-25T04:55:20;96411.78;;;6.61;54.90
55171;BME280;41060;47.510;8.680;2024-03-25T04:57:46;96413.94;;;6.32;55.70
55171;BME280;41060;47.510;8.680;2024-03-25T05:00:14;96411.94;;;6.36;55.48
55171;BME280;41060;47.510;8.680;2024-03-25T05:02:40;96414.06;;;6.31;55.66
55171;BME280;41060;47.510;8.680;2024-03-25T05:05:07;96421.03;;;5.95;56.50
55171;BME280;41060;47.510;8.680;2024-03-25T05:07:32;96420.53;;;5.78;57.29
55171;BME280;41060;47.510;8.680;2024-03-25T05:09:58;96421.19;;;5.81;57.26
55171;BME280;41060;47.510;8.680;2024-03-25T05:12:24;96413.56;;;6.02;56.37
55171;BME280;41060;47.510;8.680;2024-03-25T05:14:51;96424.31;;;6.23;58.25
55171;BME280;41060;47.510;8.680;2024-03-25T05:17:18;96405.81;;;6.35;56.06
55171;BME280;41060;47.510;8.680;2024-03-25T05:19:44;96408.44;;;6.59;56.43
55171;BME280;41060;47.510;8.680;2024-03-25T05:22:10;96408.59;;;6.80;56.13
55171;BME280;41060;47.510;8.680;2024-03-25T05:24:35;96398.72;;;6.95;55.42
55171;BME280;41060;47.510;8.680;2024-03-25T05:27:02;96404.22;;;7.03;55.53
55171;BME280;41060;47.510;8.680;2024-03-25T05:29:27;96402.53;;;7.02;55.58
55171;BME280;41060;47.510;8.680;2024-03-25T05:31:57;96406.19;;;6.77;56.13
55171;BME280;41060;47.510;8.680;2024-03-25T05:34:26;96413.75;;;6.81;56.53
55171;BME280;41060;47.510;8.680;2024-03-25T05:36:52;96404.09;;;6.93;56.08
55171;BME280;41060;47.510;8.680;2024-03-25T05:39:18;96402.53;;;7.02;56.08
55171;BME280;41060;47.510;8.680;2024-03-25T05:41:45;96398.00;;;7.15;55.87
55171;BME280;41060;47.510;8.680;2024-03-25T05:44:10;96403.53;;;7.34;55.41
55171;BME280;41060;47.510;8.680;2024-03-25T05:46:36;96398.25;;;7.45;55.32
55171;BME280;41060;47.510;8.680;2024-03-25T05:49:03;96398.88;;;7.49;55.00
55171;BME280;41060;47.510;8.680;2024-03-25T05:51:30;96403.19;;;7.39;53.78
55171;BME280;41060;47.510;8.680;2024-03-25T05:53:56;96407.25;;;7.20;54.11
55171;BME280;41060;47.510;8.680;2024-03-25T05:56:22;96398.50;;;6.98;54.59
55171;BME280;41060;47.510;8.680;2024-03-25T05:58:48;96407.91;;;7.00;54.78
55171;BME280;41060;47.510;8.680;2024-03-25T06:01:14;96406.97;;;6.90;54.93
55171;BME280;41060;47.510;8.680;2024-03-25T06:03:40;96403.34;;;6.80;55.63
55171;BME280;41060;47.510;8.680;2024-03-25T06:06:06;96406.66;;;6.71;55.93
55171;BME280;41060;47.510;8.680;2024-03-25T06:08:33;96408.06;;;6.64;56.12
55171;BME280;41060;47.510;8.680;2024-03-25T06:11:02;96403.50;;;6.55;56.39
55171;BME280;41060;47.510;8.680;2024-03-25T06:13:28;96349.13;;;6.20;56.20
55171;BME280;41060;47.510;8.680;2024-03-25T06:15:54;96394.75;;;6.43;56.26
55171;BME280;41060;47.510;8.680;2024-03-25T06:18:20;96393.53;;;6.47;56.32
55171;BME280;41060;47.510;8.680;2024-03-25T06:20:46;96395.13;;;6.50;56.23
55171;BME280;41060;47.510;8.680;2024-03-25T06:23:21;96396.31;;;6.45;56.37
55171;BME280;41060;47.510;8.680;2024-03-25T06:25:50;96386.22;;;6.39;56.55
55171;BME280;41060;47.510;8.680;2024-03-25T06:28:16;96384.38;;;6.53;56.15
55171;BME280;41060;47.510;8.680;2024-03-25T06:30:41;96387.19;;;6.73;55.40
55171;BME280;41060;47.510;8.680;2024-03-25T06:33:22;96378.56;;;6.71;55.79
55171;BME280;41060;47.510;8.680;2024-03-25T06:36:07;96384.66;;;6.61;55.93
55171;BME280;41060;47.510;8.680;2024-03-25T06:38:33;96382.72;;;6.63;56.31
55171;BME280;41060;47.510;8.680;2024-03-25T06:41:00;96378.66;;;6.59;56.32
55171;BME280;41060;47.510;8.680;2024-03-25T06:43:28;96377.94;;;6.57;56.18
55171;BME280;41060;47.510;8.680;2024-03-25T06:45:54;96375.44;;;6.66;55.99
55171;BME280;41060;47.510;8.680;2024-03-25T06:48:20;96368.06;;;6.82;55.74
55171;BME280;41060;47.510;8.680;2024-03-25T06:50:52;96353.34;;;6.91;54.89
55171;BME280;41060;47.510;8.680;2024-03-25T06:53:19;96366.19;;;7.18;54.33
55171;BME280;41060;47.510;8.680;2024-03-25T06:55:51;96359.72;;;7.11;54.62
55171;BME280;41060;47.510;8.680;2024-03-25T06:58:19;96361.97;;;6.93;55.34
55171;BME280;41060;47.510;8.680;2024-03-25T07:00:45;96357.44;;;6.95;55.42
55171;BME280;41060;47.510;8.680;2024-03-25T07:03:11;96348.72;;;7.06;54.88
55171;BME280;41060;47.510;8.680;2024-03-25T07:05:37;96354.81;;;7.06;55.18
55171;BME280;41060;47.510;8.680;2024-03-25T07:08:03;96348.00;;;7.15;55.09
55171;BME280;41060;47.510;8.680;2024-03-25T07:10:29;96359.72;;;7.44;54.16
55171;BME280;41060;47.510;8.680;2024-03-25T07:12:55;96345.09;;;7.51;53.91
55171;BME280;41060;47.510;8.680;2024-03-25T07:15:22;96336.16;;;7.43;53.99
55171;BME280;41060;47.510;8.680;2024-03-25T07:17:48;96343.31;;;7.63;53.67
55171;BME280;41060;47.510;8.680;2024-03-25T07:20:14;96346.06;;;7.61;53.15
55171;BME280;41060;47.510;8.680;2024-03-25T07:22:40;96337.56;;;7.69;53.65
55171;BME280;41060;47.510;8.680;2024-03-25T07:25:07;96334.66;;;7.83;54.01
55171;BME280;41060;47.510;8.680;2024-03-25T07:27:32;96330.31;;;7.93;54.01
55171;BME280;41060;47.510;8.680;2024-03-25T07:29:59;96324.22;;;7.93;53.73
55171;BME280;41060;47.510;8.680;2024-03-25T07:32:26;96327.19;;;7.99;53.48
55171;BME280;41060;47.510;8.680;2024-03-25T07:34:51;96327.50;;;8.06;53.80
55171;BME280;41060;47.510;8.680;2024-03-25T07:37:17;96328.69;;;8.13;54.13
55171;BME280;41060;47.510;8.680;2024-03-25T07:39:45;96338.47;;;8.22;53.12
55171;BME280;41060;47.510;8.680;2024-03-25T07:42:11;96331.09;;;8.16;53.11
55171;BME280;41060;47.510;8.680;2024-03-25T07:44:37;96327.06;;;8.01;53.45
55171;BME280;41060;47.510;8.680;2024-03-25T07:47:03;96331.09;;;8.16;53.22
55171;BME280;41060;47.510;8.680;2024-03-25T07:49:30;96327.53;;;8.27;52.82
55171;BME280;41060;47.510;8.680;2024-03-25T07:51:57;96326.53;;;8.39;53.05
55171;BME280;41060;47.510;8.680;2024-03-25T07:54:22;96318.66;;;8.28;52.53
55171;BME280;41060;47.510;8.680;2024-03-25T07:56:48;96311.72;;;8.27;52.55
55171;BME280;41060;47.510;8.680;2024-03-25T07:59:14;96310.41;;;8.00;52.61
55171;BME280;41060;47.510;8.680;2024-03-25T08:01:40;96306.84;;;7.90;52.52
55171;BME280;41060;47.510;8.680;2024-03-25T08:04:06;96309.03;;;7.85;53.02
55171;BME280;41060;47.510;8.680;2024-03-25T08:06:33;96302.78;;;7.86;53.33
55171;BME280;41060;47.510;8.680;2024-03-25T08:08:59;96297.91;;;8.02;52.97
55171;BME280;41060;47.510;8.680;2024-03-25T08:11:25;96300.38;;;7.94;51.58
55171;BME280;41060;47.510;8.680;2024-03-25T08:13:51;96294.94;;;7.96;51.49
55171;BME280;41060;47.510;8.680;2024-03-25T08:16:17;96286.88;;;8.09;51.16
55171;BME280;41060;47.510;8.680;2024-03-25T08:18:42;96281.97;;;8.04;51.40
55171;BME280;41060;47.510;8.680;2024-03-25T08:21:09;96285.09;;;8.09;51.45
55171;BME280;41060;47.510;8.680;2024-03-25T08:23:36;96274.06;;;8.25;50.35
55171;BME280;41060;47.510;8.680;2024-03-25T08:26:02;96272.06;;;8.17;49.60
55171;BME280;41060;47.510;8.680;2024-03-25T08:28:28;96276.34;;;8.29;50.76
55171;BME280;41060;47.510;8.680;2024-03-25T08:30:54;96271.19;;;8.49;50.20
55171;BME280;41060;47.510;8.680;2024-03-25T08:33:19;96265.09;;;8.78;49.99
55171;BME280;41060;47.510;8.680;2024-03-25T08:35:45;96255.03;;;8.93;49.71
55171;BME280;41060;47.510;8.680;2024-03-25T08:38:11;96239.66;;;9.08;50.31
55171;BME280;41060;47.510;8.680;2024-03-25T08:40:38;96257.25;;;9.28;49.49
55171;BME280;41060;47.510;8.680;2024-03-25T08:43:04;96246.47;;;9.41;49.20
55171;BME280;41060;47.510;8.680;2024-03-25T08:45:30;96244.97;;;9.48;48.43
55171;BME280;41060;47.510;8.680;2024-03-25T08:47:56;96245.47;;;9.32;48.91
55171;BME280;41060;47.510;8.680;2024-03-25T08:50:22;96248.97;;;9.33;48.52
55171;BME280;41060;47.510;8.680;2024-03-25T08:52:48;96249.75;;;8.93;49.73
55171;BME280;41060;47.510;8.680;2024-03-25T08:55:14;96250.59;;;9.24;49.74
55171;BME280;41060;47.510;8.680;2024-03-25T08:57:41;96253.16;;;9.54;48.07
55171;BME280;41060;47.510;8.680;2024-03-25T09:00:08;96243.31;;;9.95;47.09
55171;BME280;41060;47.510;8.680;2024-03-25T09:02:34;96239.28;;;10.39;45.80
55171;BME280;41060;47.510;8.680;2024-03-25T09:05:00;96229.09;;;10.44;45.49
55171;BME280;41060;47.510;8.680;2024-03-25T09:07:25;96232.31;;;10.28;43.21
55171;BME280;41060;47.510;8.680;2024-03-25T09:09:51;96220.63;;;10.12;43.86
55171;BME280;41060;47.510;8.680;2024-03-25T09:12:36;96220.50;;;9.84;44.34
55171;BME280;41060;47.510;8.680;2024-03-25T09:15:04;96215.63;;;9.89;44.27
55171;BME280;41060;47.510;8.680;2024-03-25T09:17:29;96218.56;;;9.77;45.38
55171;BME280;41060;47.510;8.680;2024-03-25T09:19:56;96211.88;;;9.63;44.72
55171;BME280;41060;47.510;8.680;2024-03-25T09:22:21;96209.81;;;9.86;44.36
55171;BME280;41060;47.510;8.680;2024-03-25T09:24:47;96207.25;;;10.04;44.50
55171;BME280;41060;47.510;8.680;2024-03-25T09:27:14;96212.16;;;10.08;43.69
55171;BME280;41060;47.510;8.680;2024-03-25T09:29:39;96201.44;;;9.71;44.59
55171;BME280;41060;47.510;8.680;2024-03-25T09:32:07;96204.34;;;9.49;44.60
55171;BME280;41060;47.510;8.680;2024-03-25T09:34:33;96203.13;;;9.63;45.07
55171;BME280;41060;47.510;8.680;2024-03-25T09:36:59;96190.16;;;9.88;44.60
55171;BME280;41060;47.510;8.680;2024-03-25T09:39:24;96182.19;;;10.17;44.37
55171;BME280;41060;47.510;8.680;2024-03-25T09:41:55;96180.81;;;10.23;43.97
55171;BME280;41060;47.510;8.680;2024-03-25T09:44:22;96195.84;;;10.22;43.87
55171;BME280;41060;47.510;8.680;2024-03-25T09:46:50;96186.28;;;9.92;44.39
55171;BME280;41060;47.510;8.680;2024-03-25T09:49:18;96176.75;;;10.19;44.93
55171;BME280;41060;47.510;8.680;2024-03-25T09:51:45;96170.19;;;10.32;44.35
55171;BME280;41060;47.510;8.680;2024-03-25T09:54:10;96169.31;;;10.42;43.82
55171;BME280;41060;47.510;8.680;2024-03-25T09:56:38;96164.06;;;10.32;44.49
55171;BME280;41060;47.510;8.680;2024-03-25T09:59:05;96154.38;;;10.60;42.67
55171;BME280;41060;47.510;8.680;2024-03-25T10:01:31;96158.25;;;10.75;42.91
55171;BME280;41060;47.510;8.680;2024-03-25T10:03:57;96162.63;;;10.47;41.46
55171;BME280;41060;47.510;8.680;2024-03-25T10:06:24;96168.63;;;10.40;43.61
55171;BME280;41060;47.510;8.680;2024-03-25T10:08:53;96146.59;;;10.49;42.57
55171;BME280;41060;47.510;8.680;2024-03-25T10:11:20;96147.19;;;10.43;42.94
55171;BME280;41060;47.510;8.680;2024-03-25T10:13:45;96142.72;;;10.43;42.27
55171;BME280;41060;47.510;8.680;2024-03-25T10:16:11;96147.34;;;10.78;41.99
55171;BME280;41060;47.510;8.680;2024-03-25T10:18:37;96139.16;;;10.99;41.53
55171;BME280;41060;47.510;8.680;2024-03-25T10:21:03;96130.59;;;11.50;39.75
55171;BME280;41060;47.510;8.680;2024-03-25T10:23:30;96116.53;;;11.49;40.30
55171;BME280;41060;47.510;8.680;2024-03-25T10:25:57;96123.38;;;11.25;40.52
55171;BME280;41060;47.510;8.680;2024-03-25T10:28:22;96116.22;;;10.90;41.48
55171;BME280;41060;47.510;8.680;2024-03-25T10:30:48;96117.97;;;10.99;42.13
55171;BME280;41060;47.510;8.680;2024-03-25T10:33:14;96113.53;;;11.53;41.83
55171;BME280;41060;47.510;8.680;2024-03-25T10:35:44;96100.22;;;11.44;41.63
55171;BME280;41060;47.510;8.680;2024-03-25T10:38:13;96097.84;;;11.59;41.95
55171;BME280;41060;47.510;8.680;2024-03-25T10:40:41;96089.00;;;11.50;41.21
55171;BME280;41060;47.510;8.680;2024-03-25T10:43:08;96087.78;;;11.63;40.84
55171;BME280;41060;47.510;8.680;2024-03-25T10:45:35;96080.72;;;11.89;39.73
55171;BME280;41060;47.510;8.680;2024-03-25T10:48:07;96080.47;;;11.82;39.75
55171;BME280;41060;47.510;8.680;2024-03-25T10:50:36;96072.03;;;11.61;39.26
55171;BME280;41060;47.510;8.680;2024-03-25T10:53:04;96070.56;;;11.67;40.00
55171;BME280;41060;47.510;8.680;2024-03-25T10:55:31;96063.88;;;11.98;38.05
55171;BME280;41060;47.510;8.680;2024-03-25T10:58:00;96061.34;;;12.48;36.92
55171;BME280;41060;47.510;8.680;2024-03-25T11:00:27;96065.66;;;12.49;37.83
55171;BME280;41060;47.510;8.680;2024-03-25T11:02:53;96052.13;;;12.77;37.74
55171;BME280;41060;47.510;8.680;2024-03-25T11:05:20;96048.81;;;13.17;37.54
55171;BME280;41060;47.510;8.680;2024-03-25T11:07:46;96032.38;;;13.37;36.54
55171;BME280;41060;47.510;8.680;2024-03-25T11:10:12;96032.69;;;13.59;36.18
55171;BME280;41060;47.510;8.680;2024-03-25T11:12:40;95998.16;;;13.18;34.44
55171;BME280;41060;47.510;8.680;2024-03-25T11:15:09;96029.00;;;13.03;35.59
55171;BME280;41060;47.510;8.680;2024-03-25T11:17:35;96025.38;;;13.04;36.41
55171;BME280;41060;47.510;8.680;2024-03-25T11:20:09;96009.44;;;13.12;36.15
55171;BME280;41060;47.510;8.680;2024-03-25T11:22:36;96006.44;;;13.23;35.76
55171;BME280;41060;47.510;8.680;2024-03-25T11:25:05;95988.34;;;13.19;35.50
55171;BME280;41060;47.510;8.680;2024-03-25T11:27:32;95988.16;;;13.28;35.55
55171;BME280;41060;47.510;8.680;2024-03-25T11:29:58;95979.56;;;13.43;34.95
55171;BME280;41060;47.510;8.680;2024-03-25T11:32:26;95974.34;;;13.73;42.32
55171;BME280;41060;47.510;8.680;2024-03-25T11:34:52;95968.16;;;13.81;38.56
55171;BME280;41060;47.510;8.680;2024-03-25T11:37:18;95962.50;;;13.92;35.57
55171;BME280;41060;47.510;8.680;2024-03-25T11:39:46;95956.19;;;13.93;35.63
55171;BME280;41060;47.510;8.680;2024-03-25T11:42:15;95950.47;;;14.21;34.25
55171;BME280;41060;47.510;8.680;2024-03-25T11:44:41;95945.63;;;14.55;35.55
55171;BME280;41060;47.510;8.680;2024-03-25T11:47:07;95935.19;;;14.99;34.69
55171;BME280;41060;47.510;8.680;2024-03-25T11:49:38;95915.84;;;15.05;34.03
55171;BME280;41060;47.510;8.680;2024-03-25T11:52:06;95935.63;;;15.33;33.02
55171;BME280;41060;47.510;8.680;2024-03-25T11:54:32;95929.50;;;14.79;32.21
55171;BME280;41060;47.510;8.680;2024-03-25T11:56:57;95914.31;;;14.57;33.38
55171;BME280;41060;47.510;8.680;2024-03-25T11:59:24;95918.00;;;14.79;32.84
55171;BME280;41060;47.510;8.680;2024-03-25T12:01:50;95919.22;;;14.14;33.24
55171;BME280;41060;47.510;8.680;2024-03-25T12:04:16;95916.84;;;13.72;34.79
55171;BME280;41060;47.510;8.680;2024-03-25T12:06:44;95904.91;;;14.07;33.19
55171;BME280;41060;47.510;8.680;2024-03-25T12:09:13;95889.41;;;13.72;32.71
55171;BME280;41060;47.510;8.680;2024-03-25T12:11:58;95902.06;;;13.62;33.49
55171;BME280;41060;47.510;8.680;2024-03-25T12:14:24;95887.59;;;14.03;33.83
55171;BME280;41060;47.510;8.680;2024-03-25T12:16:50;95881.28;;;14.12;33.14
55171;BME280;41060;47.510;8.680;2024-03-25T12:19:17;95880.38;;;13.81;33.02
55171;BME280;41060;47.510;8.680;2024-03-25T12:21:44;95878.41;;;14.22;34.38
55171;BME280;41060;47.510;8.680;2024-03-25T12:24:11;95873.09;;;14.22;32.46
55171;BME280;41060;47.510;8.680;2024-03-25T12:26:37;95879.53;;;14.28;32.82
55171;BME280;41060;47.510;8.680;2024-03-25T12:29:05;95871.47;;;14.44;32.23
55171;BME280;41060;47.510;8.680;2024-03-25T12:31:31;95830.56;;;14.82;31.63
55171;BME280;41060;47.510;8.680;2024-03-25T12:33:57;95854.66;;;15.12;31.47
55171;BME280;41060;47.510;8.680;2024-03-25T12:36:23;95851.88;;;15.43;30.52
55171;BME280;41060;47.510;8.680;2024-03-25T12:38:55;95844.47;;;15.30;30.20
55171;BME280;41060;47.510;8.680;2024-03-25T12:41:22;95828.31;;;15.31;30.68
55171;BME280;41060;47.510;8.680;2024-03-25T12:43:50;95825.28;;;15.64;30.54
55171;BME280;41060;47.510;8.680;2024-03-25T12:46:16;95816.44;;;15.93;29.70
55171;BME280;41060;47.510;8.680;2024-03-25T12:48:43;95811.38;;;16.34;28.52
55171;BME280;41060;47.510;8.680;2024-03-25T12:51:12;95802.81;;;16.81;27.99
55171;BME280;41060;47.510;8.680;2024-03-25T12:53:39;95783.47;;;16.79;25.65
55171;BME280;41060;47.510;8.680;2024-03-25T12:56:07;95788.81;;;16.79;27.88
55171;BME280;41060;47.510;8.680;2024-03-25T12:58:32;95789.22;;;16.76;28.27
55171;BME280;41060;47.510;8.680;2024-03-25T13:00:58;95784.69;;;16.55;28.31
55171;BME280;41060;47.510;8.680;2024-03-25T13:03:27;95778.47;;;16.12;28.39
55171;BME280;41060;47.510;8.680;2024-03-25T13:05:53;95769.88;;;16.53;28.74